Time;durP1;ratioP1;P1;durP2;ratioP2;P2;SDS_P1;SDS_P2;PMS_P1;PMS_P2;Temp;Humidity;BMP_temperature;BMP_pressure;BME280_temperature;BME280_humidity;BME280_pressure;Samples;Min_cycle;Max_cycle;Signal;HPM_P1;HPM_P2
2022/03/06 00:02:26;;;;;;;15.00;7.47;;;-1.50;99.90;;;;;;5161119;27;20170;-88
2022/03/06 00:05:27;;;;;;;15.47;7.83;;;-1.40;99.90;;;;;;5161526;27;20193;-88
2022/03/06 00:07:56;;;;;;;15.40;8.07;;;-1.40;99.90;;;;;;5141760;27;20198;-86
2022/03/06 00:10:23;;;;;;;14.33;7.97;;;-1.30;99.90;;;;;;5136692;27;20178;-86
2022/03/06 00:12:50;;;;;;;17.27;8.17;;;-1.30;99.90;;;;;;5136814;27;20266;-86
2022/03/06 00:15:18;;;;;;;22.13;10.37;;;-1.30;99.90;;;;;;5136699;27;20258;-86
2022/03/06 00:17:45;;;;;;;18.33;9.63;;;-1.30;99.90;;;;;;5136584;27;20217;-86
2022/03/06 00:20:14;;;;;;;23.60;8.60;;;-1.30;99.90;;;;;;5136437;27;20239;-86
2022/03/06 00:22:41;;;;;;;20.70;8.87;;;-1.30;99.90;;;;;;5136254;27;20190;-86
2022/03/06 00:25:09;;;;;;;20.07;8.13;;;-1.30;99.90;;;;;;5136550;27;20225;-86
2022/03/06 00:27:36;;;;;;;26.37;10.17;;;-1.30;99.90;;;;;;5136611;27;20190;-86
2022/03/06 00:30:05;;;;;;;27.73;10.47;;;-1.20;99.90;;;;;;5136050;27;20302;-86
2022/03/06 00:32:32;;;;;;;14.30;7.07;;;-1.20;99.90;;;;;;5136486;27;20182;-86
2022/03/06 00:34:59;;;;;;;14.47;7.50;;;-1.10;99.90;;;;;;5136625;27;20206;-85
2022/03/06 00:37:27;;;;;;;13.00;7.17;;;-1.10;99.90;;;;;;5136250;27;20194;-86
2022/03/06 00:39:54;;;;;;;14.97;8.20;;;-1.00;99.90;;;;;;5136288;27;20235;-86
2022/03/06 00:42:21;;;;;;;18.97;9.13;;;-0.90;99.90;;;;;;5136158;27;20193;-86
2022/03/06 00:44:48;;;;;;;18.33;9.13;;;-0.90;99.90;;;;;;5135836;27;20198;-86
2022/03/06 00:47:17;;;;;;;17.80;8.90;;;-0.90;99.90;;;;;;5136184;27;20250;-86
2022/03/06 00:49:44;;;;;;;16.37;7.83;;;-0.80;99.90;;;;;;5136084;27;20189;-86
2022/03/06 00:52:12;;;;;;;17.50;9.10;;;-0.80;99.90;;;;;;5136046;27;20568;-86
2022/03/06 00:54:41;;;;;;;15.57;7.53;;;-0.80;99.90;;;;;;5135926;27;20213;-86
2022/03/06 00:57:08;;;;;;;13.00;7.63;;;-0.80;99.90;;;;;;5135909;27;20182;-86
2022/03/06 00:59:35;;;;;;;18.50;9.03;;;-0.70;99.90;;;;;;5136123;27;20194;-86
2022/03/06 01:02:04;;;;;;;16.27;9.57;;;-0.70;99.90;;;;;;5135531;27;20186;-86
2022/03/06 01:04:31;;;;;;;20.00;10.30;;;-0.70;99.90;;;;;;5136060;27;20189;-86
2022/03/06 01:06:58;;;;;;;19.20;9.70;;;-0.70;99.90;;;;;;5136023;27;20217;-86
2022/03/06 01:09:25;;;;;;;19.57;9.90;;;-0.80;99.90;;;;;;5135886;27;20685;-86
2022/03/06 01:11:54;;;;;;;19.43;10.07;;;-0.80;99.90;;;;;;5135333;27;20250;-86
2022/03/06 01:14:21;;;;;;;20.40;9.63;;;-0.80;99.90;;;;;;5135330;27;20209;-86
2022/03/06 01:16:48;;;;;;;20.53;10.20;;;-0.80;99.90;;;;;;5135495;27;20186;-86
2022/03/06 01:19:15;;;;;;;15.97;9.37;;;-0.80;99.90;;;;;;5135512;27;20186;-86
2022/03/06 01:21:42;;;;;;;16.50;9.23;;;-0.80;99.90;;;;;;5135572;27;20234;-86
2022/03/06 01:24:09;;;;;;;15.83;9.40;;;-0.90;99.90;;;;;;5135425;27;20193;-87
2022/03/06 01:26:36;;;;;;;21.43;9.73;;;-0.80;99.90;;;;;;5135412;27;20274;-87
2022/03/06 01:29:05;;;;;;;21.43;9.20;;;-0.90;99.90;;;;;;5134923;27;20219;-86
2022/03/06 01:31:32;;;;;;;18.43;9.40;;;-0.90;99.90;;;;;;5134933;27;20574;-87
2022/03/06 01:34:02;;;;;;;18.70;9.33;;;-0.90;99.90;;;;;;5135346;27;20259;-86
2022/03/06 01:36:30;;;;;;;21.77;9.50;;;-0.90;99.90;;;;;;5135270;27;20529;-87
2022/03/06 01:38:57;;;;;;;19.57;9.03;;;-1.00;99.90;;;;;;5135288;27;20269;-87
2022/03/06 01:41:24;;;;;;;17.17;8.93;;;-1.00;99.90;;;;;;5134781;27;20226;-86
2022/03/06 01:43:51;;;;;;;19.40;10.17;;;-1.00;1.00;;;;;;5134974;27;20243;-86
2022/03/06 01:46:19;;;;;;;18.87;9.90;;;-0.90;1.00;;;;;;5135131;27;20194;-86
2022/03/06 01:48:46;;;;;;;22.57;9.80;;;-0.90;1.00;;;;;;5134569;27;20250;-86
2022/03/06 01:51:13;;;;;;;15.93;9.47;;;-1.00;1.00;;;;;;5135099;27;20193;-87
2022/03/06 01:53:41;;;;;;;16.87;9.23;;;-1.00;1.00;;;;;;5134844;27;20185;-85
2022/03/06 01:56:09;;;;;;;24.60;9.83;;;-1.00;1.00;;;;;;5134836;27;20244;-87
2022/03/06 01:58:36;;;;;;;21.40;9.90;;;-1.00;1.00;;;;;;5134918;27;20190;-86
2022/03/06 02:01:03;;;;;;;17.53;10.07;;;-0.90;1.00;;;;;;5134779;27;20190;-86
2022/03/06 02:03:32;;;;;;;21.83;11.00;;;-0.90;1.00;;;;;;5134829;27;20238;-87
2022/03/06 02:05:59;;;;;;;20.90;11.17;;;-0.90;1.00;;;;;;5134663;27;20610;-86
2022/03/06 02:08:26;;;;;;;28.37;12.33;;;-0.90;1.00;;;;;;5134448;27;20222;-86
2022/03/06 02:10:55;;;;;;;20.27;11.07;;;-0.90;1.00;;;;;;5134258;27;20228;-86
2022/03/06 02:13:21;;;;;;;24.23;11.77;;;-0.80;1.00;;;;;;5134384;27;20277;-86
2022/03/06 02:15:49;;;;;;;25.00;12.30;;;-0.80;1.00;;;;;;5133946;27;20262;-86
2022/03/06 02:18:16;;;;;;;21.13;10.90;;;-0.80;1.00;;;;;;5134326;27;20194;-86
2022/03/06 02:20:44;;;;;;;20.00;10.60;;;-0.80;1.00;;;;;;5133975;27;20189;-86
2022/03/06 02:23:13;;;;;;;26.53;11.97;;;-0.80;1.00;;;;;;5133653;27;20189;-86
2022/03/06 02:25:40;;;;;;;24.07;12.07;;;-0.80;1.00;;;;;;5134176;27;20242;-86
2022/03/06 02:28:08;;;;;;;20.90;11.33;;;-0.80;1.00;;;;;;5134293;27;20185;-86
2022/03/06 02:30:38;;;;;;;20.70;9.60;;;-0.70;1.00;;;;;;5133983;27;20185;-86
2022/03/06 02:33:07;;;;;;;20.40;11.27;;;-0.70;1.00;;;;;;5134553;27;20586;-86
2022/03/06 02:35:35;;;;;;;18.73;10.00;;;-0.70;99.90;;;;;;5134000;27;20585;-87
2022/03/06 02:38:02;;;;;;;20.47;12.10;;;-0.70;99.90;;;;;;5134058;27;20329;-86
2022/03/06 02:40:37;;;;;;;23.80;11.63;;;-0.70;1.00;;;;;;5134119;27;20250;-86
2022/03/06 02:43:06;;;;;;;23.67;12.30;;;-0.70;1.00;;;;;;5133795;27;20585;-86
2022/03/06 02:45:34;;;;;;;25.23;13.93;;;-0.70;1.00;;;;;;5134179;27;20185;-86
2022/03/06 02:48:01;;;;;;;29.40;13.57;;;-0.60;99.90;;;;;;5133475;27;20246;-85
2022/03/06 02:50:30;;;;;;;27.20;12.87;;;-0.60;99.90;;;;;;5133867;27;20194;-87
2022/03/06 02:52:59;;;;;;;26.97;13.77;;;-0.60;99.90;;;;;;5133627;27;20189;-86
2022/03/06 02:55:33;;;;;;;29.63;14.00;;;-0.60;99.90;;;;;;5131451;27;20237;-89
2022/03/06 02:58:30;;;;;;;29.90;13.83;;;-0.60;99.90;;;;;;5137503;28;20174;-90
2022/03/06 03:01:03;;;;;;;32.27;14.03;;;-0.60;1.00;;;;;;5080251;28;20197;-89
2022/03/06 03:03:39;;;;;;;29.67;13.43;;;-0.60;99.90;;;;;;5119174;28;20186;-87
2022/03/06 03:06:07;;;;;;;32.20;13.23;;;-0.60;1.00;;;;;;5112923;28;20170;-87
2022/03/06 03:08:34;;;;;;;26.93;12.23;;;-0.60;99.90;;;;;;5112971;28;20222;-87
2022/03/06 03:11:01;;;;;;;30.70;12.90;;;-0.60;99.90;;;;;;5112754;28;20588;-87
2022/03/06 03:13:29;;;;;;;28.20;12.37;;;-0.60;99.90;;;;;;5112643;28;20651;-86
2022/03/06 03:15:57;;;;;;;27.40;12.73;;;-0.60;99.90;;;;;;5112832;28;20210;-87
2022/03/06 03:18:25;;;;;;;28.97;12.77;;;-0.60;99.90;;;;;;5112624;28;20729;-87
2022/03/06 03:20:52;;;;;;;30.33;13.77;;;-0.50;99.90;;;;;;5129785;28;20181;-87
2022/03/06 03:23:19;;;;;;;23.30;11.37;;;-0.50;99.90;;;;;;5133114;28;20630;-87
2022/03/06 03:25:46;;;;;;;27.40;12.93;;;-0.60;99.90;;;;;;5132633;28;20246;-87
2022/03/06 03:28:13;;;;;;;31.07;12.47;;;-0.60;99.90;;;;;;5132971;28;20190;-87
2022/03/06 03:30:41;;;;;;;28.80;12.80;;;-0.60;99.90;;;;;;5133543;28;20186;-86
2022/03/06 03:33:08;;;;;;;28.43;12.73;;;-0.60;99.90;;;;;;5133561;28;20190;-87
2022/03/06 03:35:37;;;;;;;26.37;12.47;;;-0.60;99.90;;;;;;5136637;27;20209;-87
2022/03/06 03:38:04;;;;;;;21.73;11.83;;;-0.50;99.90;;;;;;5137525;27;20190;-87
2022/03/06 03:40:31;;;;;;;21.60;11.93;;;-0.50;99.90;;;;;;5137461;27;20189;-87
2022/03/06 03:42:58;;;;;;;30.83;12.23;;;-0.50;99.90;;;;;;5137063;27;20234;-86
2022/03/06 03:45:25;;;;;;;21.10;9.67;;;-0.60;99.90;;;;;;5137339;27;20234;-87
2022/03/06 03:47:53;;;;;;;22.87;11.23;;;-0.60;99.90;;;;;;5136956;27;20239;-86
2022/03/06 03:50:20;;;;;;;24.83;11.13;;;-0.60;99.90;;;;;;5136964;27;20190;-87
2022/03/06 03:52:47;;;;;;;24.47;11.97;;;-0.60;99.90;;;;;;5137242;27;20215;-87
2022/03/06 03:55:14;;;;;;;24.03;12.87;;;-0.60;99.90;;;;;;5136282;27;20688;-87
2022/03/06 03:57:41;;;;;;;23.53;11.80;;;-0.60;99.90;;;;;;5137088;27;20313;-87
2022/03/06 04:00:10;;;;;;;20.37;10.53;;;-0.60;99.90;;;;;;5137288;27;20239;-87
2022/03/06 04:02:37;;;;;;;21.93;10.80;;;-0.50;99.90;;;;;;5137050;27;20231;-86
2022/03/06 04:05:06;;;;;;;27.73;11.93;;;-0.50;99.90;;;;;;5136836;27;20584;-87
2022/03/06 04:07:33;;;;;;;23.97;11.67;;;-0.50;99.90;;;;;;5136933;27;20212;-87
2022/03/06 04:10:00;;;;;;;22.47;11.23;;;-0.50;99.90;;;;;;5137044;27;20210;-86
2022/03/06 04:12:27;;;;;;;19.03;10.40;;;-0.50;99.90;;;;;;5136885;27;20185;-87
2022/03/06 04:14:54;;;;;;;20.83;10.90;;;-0.50;99.90;;;;;;5136803;27;20213;-87
2022/03/06 04:17:21;;;;;;;22.20;10.80;;;-0.50;99.90;;;;;;5136710;27;20198;-86
2022/03/06 04:19:48;;;;;;;24.30;11.23;;;-0.50;99.90;;;;;;5136565;27;20316;-86
2022/03/06 04:22:16;;;;;;;24.67;10.70;;;-0.50;99.90;;;;;;5136341;27;20632;-87
2022/03/06 04:24:43;;;;;;;22.63;11.50;;;-0.50;99.90;;;;;;5136442;27;20238;-87
2022/03/06 04:27:10;;;;;;;19.87;10.30;;;-0.50;99.90;;;;;;5136608;27;20182;-86
2022/03/06 04:29:37;;;;;;;21.20;10.57;;;-0.50;99.90;;;;;;5136143;27;20182;-87
2022/03/06 04:32:06;;;;;;;22.10;9.70;;;-0.50;99.90;;;;;;5136086;27;20189;-87
2022/03/06 04:34:33;;;;;;;21.97;10.67;;;-0.50;99.90;;;;;;5136067;27;20204;-87
2022/03/06 04:37:00;;;;;;;20.53;10.80;;;-0.50;99.90;;;;;;5136160;27;20238;-87
2022/03/06 04:39:28;;;;;;;21.57;9.77;;;-0.50;99.90;;;;;;5136322;27;20262;-86
2022/03/06 04:41:55;;;;;;;17.53;9.30;;;-0.50;99.90;;;;;;5135950;27;20219;-86
2022/03/06 04:44:23;;;;;;;17.40;9.43;;;-0.40;99.90;;;;;;5135913;27;20217;-86
2022/03/06 04:46:50;;;;;;;18.47;9.23;;;-0.40;99.90;;;;;;5135431;27;20236;-86
2022/03/06 04:49:17;;;;;;;17.07;9.40;;;-0.40;99.90;;;;;;5135788;27;20186;-87
2022/03/06 04:51:44;;;;;;;18.03;9.90;;;-0.40;99.90;;;;;;5136113;27;20238;-86
2022/03/06 04:54:11;;;;;;;23.87;10.63;;;-0.40;99.90;;;;;;5136438;27;20182;-87
2022/03/06 04:56:39;;;;;;;16.57;9.67;;;-0.40;99.90;;;;;;5135601;27;20276;-87
2022/03/06 04:59:06;;;;;;;16.97;10.07;;;-0.40;99.90;;;;;;5135903;27;20189;-87
2022/03/06 05:01:33;;;;;;;19.70;10.03;;;-0.40;99.90;;;;;;5135922;27;20186;-87
2022/03/06 05:04:01;;;;;;;20.20;10.13;;;-0.40;99.90;;;;;;5135960;27;20185;-86
2022/03/06 05:06:28;;;;;;;22.63;10.73;;;-0.40;1.00;;;;;;5135672;27;20194;-86
2022/03/06 05:08:55;;;;;;;20.90;11.30;;;-0.40;1.00;;;;;;5135701;27;20583;-87
2022/03/06 05:11:23;;;;;;;18.93;10.43;;;-0.40;1.00;;;;;;5135864;27;20185;-87
2022/03/06 05:13:54;;;;;;;21.03;10.93;;;-0.40;1.00;;;;;;5135122;27;20643;-87
2022/03/06 05:16:21;;;;;;;24.83;11.27;;;-0.40;1.00;;;;;;5135585;27;20194;-88
2022/03/06 05:18:48;;;;;;;23.40;11.17;;;-0.40;1.00;;;;;;5135689;27;20182;-87
2022/03/06 05:21:15;;;;;;;21.70;10.63;;;-0.40;99.90;;;;;;5135479;27;20186;-87
2022/03/06 05:23:42;;;;;;;19.73;9.60;;;-0.40;1.00;;;;;;5135520;27;20227;-87
2022/03/06 05:26:09;;;;;;;19.07;9.73;;;-0.50;1.00;;;;;;5135387;27;20186;-86
2022/03/06 05:28:37;;;;;;;23.10;10.63;;;-0.40;1.00;;;;;;5135372;27;20186;-87
2022/03/06 05:31:05;;;;;;;21.80;11.40;;;-0.50;99.90;;;;;;5137658;27;20221;-88
2022/03/06 05:33:32;;;;;;;21.63;11.73;;;-0.50;1.00;;;;;;5135266;27;20254;-87
2022/03/06 05:35:59;;;;;;;23.27;11.53;;;-0.50;1.00;;;;;;5135331;27;20206;-87
2022/03/06 05:38:26;;;;;;;18.73;10.37;;;-0.50;1.00;;;;;;5135159;27;20186;-86
2022/03/06 05:40:53;;;;;;;16.97;9.40;;;-0.40;1.00;;;;;;5141284;27;20190;-86
2022/03/06 05:43:20;;;;;;;21.23;11.23;;;-0.40;99.90;;;;;;5135113;27;20186;-86
2022/03/06 05:45:50;;;;;;;18.87;9.50;;;-0.40;99.90;;;;;;5135039;27;20760;-86
2022/03/06 05:48:18;;;;;;;21.60;10.13;;;-0.40;1.00;;;;;;5134941;27;20213;-86
2022/03/06 05:50:52;;;;;;;24.73;12.07;;;-0.40;1.00;;;;;;5136283;27;20186;-86
2022/03/06 05:53:20;;;;;;;15.73;9.77;;;-0.40;1.00;;;;;;5135925;27;20189;-87
2022/03/06 05:55:47;;;;;;;17.60;9.17;;;-0.40;1.00;;;;;;5137775;27;20216;-86
2022/03/06 05:58:17;;;;;;;18.70;10.30;;;-0.30;1.00;;;;;;5137226;27;20190;-87
2022/03/06 06:00:44;;;;;;;19.27;10.93;;;-0.30;1.00;;;;;;5138470;27;20269;-86
2022/03/06 06:03:11;;;;;;;17.90;9.07;;;-0.30;1.00;;;;;;5137074;27;20568;-87
2022/03/06 06:05:39;;;;;;;18.00;9.90;;;-0.20;1.00;;;;;;5136893;27;20190;-86
2022/03/06 06:08:06;;;;;;;18.03;9.27;;;-0.20;1.00;;;;;;5139138;27;20214;-85
2022/03/06 06:10:33;;;;;;;17.80;9.80;;;-0.10;99.90;;;;;;5139103;27;20174;-86
2022/03/06 06:13:00;;;;;;;19.10;9.17;;;-0.10;99.90;;;;;;5138499;27;20198;-86
2022/03/06 06:15:37;;;;;;;20.13;9.93;;;-0.10;99.90;;;;;;5137733;27;20206;-89
2022/03/06 06:18:04;;;;;;;17.87;9.20;;;-0.10;1.00;;;;;;5137602;27;20232;-87
2022/03/06 06:20:33;;;;;;;18.27;10.07;;;0.00;99.90;;;;;;5140558;27;20215;-85
2022/03/06 06:23:02;;;;;;;17.67;9.17;;;0.00;1.00;;;;;;5142453;27;20637;-89
2022/03/06 06:25:29;;;;;;;17.27;9.77;;;0.10;1.00;;;;;;5139699;27;20254;-87
2022/03/06 06:27:56;;;;;;;24.30;10.67;;;0.20;1.00;;;;;;5140033;27;20191;-87
2022/03/06 06:30:23;;;;;;;20.67;9.63;;;0.20;99.90;;;;;;5140786;27;20186;-86
2022/03/06 06:32:49;;;;;;;18.03;8.97;;;0.30;99.90;;;;;;5141738;27;20668;-88
2022/03/06 06:35:22;;;;;;;15.83;9.67;;;0.40;99.90;;;;;;5143243;27;20650;-89
2022/03/06 06:37:52;;;;;;;17.87;9.53;;;0.40;99.90;;;;;;5144685;27;20178;-89
2022/03/06 06:40:20;;;;;;;17.73;10.10;;;0.50;99.90;;;;;;5142288;27;20194;-86
2022/03/06 06:42:48;;;;;;;15.87;8.77;;;0.60;99.90;;;;;;5145291;27;20250;-89
2022/03/06 06:45:15;;;;;;;18.47;8.90;;;0.60;99.90;;;;;;5141529;27;20273;-87
2022/03/06 06:47:42;;;;;;;18.03;9.53;;;0.60;99.90;;;;;;5141557;27;20187;-86
2022/03/06 06:50:10;;;;;;;18.60;10.47;;;0.60;99.90;;;;;;5137828;27;20249;-87
2022/03/06 06:52:37;;;;;;;20.07;9.80;;;0.70;99.90;;;;;;5137200;27;20634;-86
2022/03/06 06:55:09;;;;;;;17.60;8.90;;;0.70;99.90;;;;;;5138090;27;20197;-87
2022/03/06 06:57:38;;;;;;;17.87;9.83;;;0.80;99.90;;;;;;5137156;27;20205;-87
2022/03/06 07:00:07;;;;;;;16.73;9.30;;;0.90;99.90;;;;;;5136088;27;20266;-84
2022/03/06 07:02:37;;;;;;;16.17;9.40;;;1.00;99.90;;;;;;5138845;27;20189;-86
2022/03/06 07:05:20;;;;;;;18.87;9.37;;;1.10;99.90;;;;;;5135200;27;20280;-86
2022/03/06 07:07:46;;;;;;;20.07;9.97;;;1.10;99.90;;;;;;5137122;27;20633;-87
2022/03/06 07:10:14;;;;;;;18.30;9.43;;;1.20;99.90;;;;;;5137369;27;20250;-86
2022/03/06 07:12:48;;;;;;;17.43;9.63;;;1.30;99.90;;;;;;5137851;27;20234;-86
2022/03/06 07:15:16;;;;;;;18.00;9.50;;;1.40;99.90;;;;;;5139892;28;20184;-87
2022/03/06 07:17:43;;;;;;;17.27;9.83;;;1.40;99.90;;;;;;5138770;28;20186;-87
2022/03/06 07:20:13;;;;;;;19.30;9.90;;;1.50;99.90;;;;;;5135570;28;20499;-87
2022/03/06 07:22:41;;;;;;;17.23;9.70;;;1.50;99.90;;;;;;5138008;28;20678;-87
2022/03/06 07:25:10;;;;;;;15.50;9.30;;;1.60;99.90;;;;;;5141228;28;20190;-88
2022/03/06 07:27:37;;;;;;;17.47;9.43;;;1.70;99.90;;;;;;5138579;28;20185;-86
2022/03/06 07:30:07;;;;;;;59.87;26.07;;;1.80;99.90;;;;;;5139572;28;20198;-87
2022/03/06 07:32:40;;;;;;;49.23;22.03;;;1.90;99.90;;;;;;5137909;28;20186;-87
2022/03/06 07:35:12;;;;;;;22.23;11.53;;;2.00;99.90;;;;;;5139913;28;20206;-87
2022/03/06 07:37:39;;;;;;;18.07;9.43;;;2.10;99.90;;;;;;5139079;28;20204;-87
2022/03/06 07:40:12;;;;;;;15.60;8.60;;;2.10;99.90;;;;;;5138587;28;20197;-87
2022/03/06 07:42:45;;;;;;;19.40;10.50;;;2.10;99.90;;;;;;5135398;28;20264;-88
2022/03/06 07:45:14;;;;;;;15.70;9.47;;;2.20;99.90;;;;;;5132034;28;20217;-85
2022/03/06 07:47:41;;;;;;;24.70;12.37;;;2.20;99.90;;;;;;5140074;28;20231;-86
2022/03/06 07:50:10;;;;;;;25.13;12.60;;;2.20;99.90;;;;;;5134453;28;20186;-85
2022/03/06 07:52:38;;;;;;;17.10;10.13;;;2.30;99.90;;;;;;5140317;28;20239;-86
2022/03/06 07:55:09;;;;;;;17.83;8.87;;;2.30;99.90;;;;;;5140728;28;20195;-88
2022/03/06 07:57:38;;;;;;;13.33;8.33;;;2.40;99.90;;;;;;5133442;28;20201;-86
2022/03/06 08:00:07;;;;;;;18.03;8.87;;;2.40;99.90;;;;;;5139869;28;20187;-85
2022/03/06 08:02:40;;;;;;;12.57;8.23;;;2.50;99.90;;;;;;5138662;28;20193;-89
2022/03/06 08:05:09;;;;;;;17.47;10.17;;;2.50;99.90;;;;;;5136800;28;20242;-87
2022/03/06 08:07:36;;;;;;;16.83;8.97;;;2.50;99.90;;;;;;5131741;28;20242;-86
2022/03/06 08:10:06;;;;;;;14.90;8.17;;;2.50;99.90;;;;;;5117383;28;20239;-88
2022/03/06 08:12:33;;;;;;;20.63;9.20;;;2.60;99.90;;;;;;5119071;28;20638;-87
2022/03/06 08:15:00;;;;;;;16.27;8.87;;;2.70;99.90;;;;;;5127771;28;20193;-86
2022/03/06 08:17:27;;;;;;;17.47;8.70;;;2.80;99.90;;;;;;5135290;28;20673;-87
2022/03/06 08:19:55;;;;;;;15.30;8.33;;;2.80;99.90;;;;;;5137017;28;20666;-85
2022/03/06 08:22:23;;;;;;;52.60;18.50;;;2.90;99.90;;;;;;5137853;27;20186;-86
2022/03/06 08:24:50;;;;;;;209.20;51.17;;;3.10;99.90;;;;;;5141290;27;20225;-86
2022/03/06 08:27:18;;;;;;;85.33;26.03;;;3.20;99.90;;;;;;5139991;27;20193;-90
2022/03/06 08:29:45;;;;;;;45.93;17.23;;;3.30;99.90;;;;;;5138703;27;20231;-88
2022/03/06 08:32:13;;;;;;;16.63;8.10;;;3.40;99.90;;;;;;5139946;27;20191;-89
2022/03/06 08:34:40;;;;;;;13.53;6.93;;;3.50;99.90;;;;;;5138685;27;20192;-87
2022/03/06 08:37:09;;;;;;;19.83;9.90;;;3.60;99.90;;;;;;5140078;27;20217;-85
2022/03/06 08:39:37;;;;;;;25.87;11.90;;;3.70;99.90;;;;;;5142106;27;20187;-89
2022/03/06 08:42:07;;;;;;;50.00;17.37;;;3.60;99.90;;;;;;5141358;27;20191;-87
2022/03/06 08:44:34;;;;;;;41.83;14.90;;;3.80;99.90;;;;;;5127011;27;20209;-87
2022/03/06 08:47:07;;;;;;;20.67;11.10;;;3.90;99.90;;;;;;5123084;28;20190;-89
2022/03/06 08:49:34;;;;;;;20.67;9.77;;;4.00;94.70;;;;;;5122247;28;20170;-88
2022/03/06 08:52:01;;;;;;;33.67;14.60;;;4.00;96.70;;;;;;5124115;28;20189;-88
2022/03/06 08:54:45;;;;;;;30.20;17.07;;;4.10;94.10;;;;;;5121207;28;20188;-92
2022/03/06 08:57:16;;;;;;;26.33;13.03;;;4.10;83.70;;;;;;5122023;28;20604;-89
2022/03/06 08:59:43;;;;;;;44.73;17.90;;;4.10;91.80;;;;;;5136326;27;20178;-86
2022/03/06 09:02:10;;;;;;;29.67;13.57;;;4.10;91.10;;;;;;5125166;27;20550;-89
2022/03/06 09:04:40;;;;;;;97.07;35.60;;;4.20;91.60;;;;;;5122037;28;20167;-90
2022/03/06 09:07:07;;;;;;;82.57;31.77;;;4.20;87.10;;;;;;5124035;28;20187;-85
2022/03/06 09:09:37;;;;;;;36.80;15.10;;;4.30;85.90;;;;;;5118566;28;20262;-88
2022/03/06 09:12:06;;;;;;;16.60;9.10;;;4.30;61.80;;;;;;5118974;28;20171;-87
2022/03/06 09:14:33;;;;;;;13.70;8.47;;;4.30;57.30;;;;;;5137298;27;20546;-87
2022/03/06 09:17:04;;;;;;;16.93;9.17;;;4.30;46.70;;;;;;5141677;27;20246;-87
2022/03/06 09:19:31;;;;;;;15.00;8.97;;;4.40;35.90;;;;;;5138523;27;20192;-87
2022/03/06 09:22:00;;;;;;;15.37;8.40;;;4.40;36.40;;;;;;5127055;27;20255;-88
2022/03/06 09:24:27;;;;;;;18.07;10.03;;;4.50;29.70;;;;;;5118696;28;20198;-86
2022/03/06 09:26:54;;;;;;;17.93;9.40;;;4.50;28.30;;;;;;5118534;27;20181;-87
2022/03/06 09:29:22;;;;;;;22.57;11.07;;;4.60;28.70;;;;;;5132368;27;20229;-86
2022/03/06 09:31:49;;;;;;;19.53;10.73;;;4.70;24.10;;;;;;5138553;27;20196;-88
2022/03/06 09:34:16;;;;;;;20.40;9.93;;;4.80;19.40;;;;;;5120375;27;20194;-87
2022/03/06 09:36:43;;;;;;;17.53;9.40;;;4.80;13.90;;;;;;5127001;27;20238;-87
2022/03/06 09:39:10;;;;;;;16.50;9.67;;;4.80;13.20;;;;;;5142239;27;20575;-87
2022/03/06 09:41:41;;;;;;;27.37;11.60;;;4.80;13.40;;;;;;5138777;27;20178;-87
2022/03/06 09:44:10;;;;;;;95.03;31.33;;;4.90;8.90;;;;;;5136282;27;20258;-86
2022/03/06 09:46:43;;;;;;;22.30;12.30;;;5.00;3.30;;;;;;5141479;27;20182;-91
2022/03/06 09:49:14;;;;;;;16.87;9.90;;;5.10;1.00;;;;;;5141016;27;20622;-89
2022/03/06 09:51:42;;;;;;;25.27;10.80;;;5.20;1.00;;;;;;5139976;27;20190;-88
2022/03/06 09:54:11;;;;;;;21.20;11.83;;;5.30;1.00;;;;;;5145972;27;20206;-89
2022/03/06 09:56:38;;;;;;;22.60;12.23;;;5.30;1.00;;;;;;5137061;27;20605;-86
2022/03/06 09:59:06;;;;;;;19.43;10.73;;;5.40;1.00;;;;;;5141782;27;20217;-87
2022/03/06 10:01:39;;;;;;;21.10;11.43;;;5.40;1.00;;;;;;5140419;27;20185;-88
2022/03/06 10:07:08;;;;;;;25.13;13.40;;;5.50;1.00;;;;;;5113902;27;20605;-91
2022/03/06 10:09:45;;;;;;;20.97;11.60;;;5.70;1.00;;;;;;5102337;28;20181;-88
2022/03/06 10:12:22;;;;;;;20.27;12.07;;;5.70;1.00;;;;;;5093400;28;20236;-86
2022/03/06 10:14:51;;;;;;;23.10;12.17;;;5.70;1.00;;;;;;5096321;28;20187;-86
2022/03/06 10:17:19;;;;;;;19.57;10.97;;;5.70;1.00;;;;;;5095523;28;20195;-87
2022/03/06 10:19:57;;;;;;;16.90;9.60;;;5.80;1.00;;;;;;5093313;28;20825;-91
2022/03/06 10:22:28;;;;;;;21.87;11.13;;;5.80;1.00;;;;;;5100697;28;20250;-88
2022/03/06 10:24:57;;;;;;;17.03;8.80;;;5.70;1.00;;;;;;5099984;28;20208;-88
2022/03/06 10:27:49;;;;;;;18.57;9.93;;;5.80;1.00;;;;;;5096770;28;20237;-88
2022/03/06 10:30:33;;;;;;;21.17;11.20;;;5.80;1.00;;;;;;5093119;28;20201;-88
2022/03/06 10:33:02;;;;;;;21.03;11.23;;;5.80;1.00;;;;;;5092822;28;20168;-89
2022/03/06 10:35:34;;;;;;;22.30;11.50;;;5.80;1.00;;;;;;5094399;28;20193;-89
2022/03/06 10:38:17;;;;;;;21.73;12.17;;;5.80;1.00;;;;;;5107091;28;20256;-90
2022/03/06 10:40:45;;;;;;;14.20;8.97;;;5.90;1.00;;;;;;5088562;28;20237;-89
2022/03/06 10:43:23;;;;;;;12.07;7.67;;;5.90;1.00;;;;;;5091870;28;20582;-87
2022/03/06 10:45:52;;;;;;;14.97;9.10;;;5.90;1.00;;;;;;5094567;28;20204;-88
2022/03/06 10:48:20;;;;;;;14.87;8.67;;;5.80;1.00;;;;;;5113941;28;20191;-89
2022/03/06 10:50:47;;;;;;;15.50;9.03;;;5.90;1.00;;;;;;5113102;28;20524;-89
2022/03/06 10:53:29;;;;;;;14.83;8.87;;;5.90;1.00;;;;;;5100697;28;20185;-88
2022/03/06 10:56:06;;;;;;;11.47;6.37;;;5.80;1.00;;;;;;5087405;28;20184;-86
2022/03/06 10:58:34;;;;;;;11.13;5.00;;;5.80;1.00;;;;;;5092894;28;20210;-88
2022/03/06 11:01:07;;;;;;;10.40;5.60;;;5.90;1.00;;;;;;5098754;28;20214;-88
2022/03/06 11:03:36;;;;;;;8.17;4.37;;;5.90;1.00;;;;;;5111350;28;20187;-87
2022/03/06 11:06:04;;;;;;;9.17;4.13;;;5.90;1.00;;;;;;5111523;28;20216;-86
2022/03/06 11:08:34;;;;;;;6.57;4.53;;;5.90;1.00;;;;;;5105675;28;20188;-89
2022/03/06 11:11:10;;;;;;;14.67;8.90;;;5.90;1.00;;;;;;5104461;28;20275;-90
2022/03/06 11:13:38;;;;;;;10.77;6.73;;;5.80;1.00;;;;;;5105322;28;20186;-85
2022/03/06 11:16:05;;;;;;;10.97;5.90;;;5.70;1.00;;;;;;5104779;28;20275;-90
2022/03/06 11:18:34;;;;;;;13.47;7.57;;;5.50;1.00;;;;;;5086156;28;20217;-85
2022/03/06 11:21:03;;;;;;;12.17;6.17;;;5.50;1.00;;;;;;5096288;28;20206;-85
2022/03/06 11:23:36;;;;;;;8.20;5.53;;;5.40;1.00;;;;;;5088315;28;20717;-86
2022/03/06 11:26:31;;;;;;;9.70;6.23;;;5.30;1.00;;;;;;5079191;28;20184;-87
2022/03/06 11:29:46;;;;;;;9.43;6.23;;;5.20;1.00;;;;;;5079637;28;20624;-88
2022/03/06 11:32:13;;;;;;;8.43;5.47;;;5.20;1.00;;;;;;5034644;28;20185;-87
2022/03/06 11:34:41;;;;;;;10.43;5.40;;;5.10;1.00;;;;;;5035818;28;20193;-86
2022/03/06 11:37:15;;;;;;;10.63;5.80;;;5.00;1.00;;;;;;5059386;28;20570;-85
2022/03/06 11:39:48;;;;;;;10.17;5.90;;;5.00;1.00;;;;;;5096752;28;20191;-86
2022/03/06 11:42:56;;;;;;;9.57;5.40;;;5.00;1.00;;;;;;5079784;28;20211;-86
2022/03/06 11:45:45;;;;;;;9.93;5.50;;;5.10;1.00;;;;;;5057004;28;20240;-87
2022/03/06 11:48:23;;;;;;;9.60;5.10;;;5.20;1.00;;;;;;5078569;28;20188;-87
2022/03/06 11:51:19;;;;;;;9.60;5.80;;;5.30;1.00;;;;;;5080423;28;20183;-87
2022/03/06 11:53:49;;;;;;;12.33;5.23;;;5.40;1.00;;;;;;5100300;28;20188;-88
2022/03/06 11:56:53;;;;;;;8.10;4.43;;;5.40;1.00;;;;;;5079868;28;20197;-88
2022/03/06 11:59:40;;;;;;;7.60;4.50;;;5.40;1.00;;;;;;5080903;28;20721;-88
2022/03/06 12:02:18;;;;;;;11.93;5.80;;;5.50;1.00;;;;;;5083743;28;20172;-91
2022/03/06 12:04:54;;;;;;;9.53;5.63;;;5.50;1.00;;;;;;5082461;28;20176;-90
2022/03/06 12:07:22;;;;;;;9.53;4.97;;;5.50;1.00;;;;;;5087283;28;20214;-88
2022/03/06 12:09:52;;;;;;;12.60;6.30;;;5.50;1.00;;;;;;5103913;28;20240;-86
2022/03/06 12:12:25;;;;;;;14.13;6.80;;;5.50;1.00;;;;;;5098888;28;20192;-91
2022/03/06 12:14:59;;;;;;;10.93;6.07;;;5.40;1.00;;;;;;5080030;28;20184;-90
2022/03/06 12:17:45;;;;;;;9.77;6.10;;;5.50;1.00;;;;;;5080722;28;20197;-86
2022/03/06 12:20:28;;;;;;;10.97;6.03;;;5.60;1.00;;;;;;5081930;28;20572;-87
2022/03/06 12:23:06;;;;;;;7.33;4.70;;;5.70;1.00;;;;;;5080397;28;20203;-86
2022/03/06 12:25:38;;;;;;;7.60;4.90;;;5.70;1.00;;;;;;5076823;28;20222;-87
2022/03/06 12:28:24;;;;;;;7.77;5.23;;;5.70;1.00;;;;;;5074429;28;20176;-85
2022/03/06 12:30:52;;;;;;;5.23;3.37;;;5.70;1.00;;;;;;5075087;28;20227;-86
2022/03/06 12:33:33;;;;;;;4.63;2.77;;;5.80;1.00;;;;;;5058223;28;20518;-86
2022/03/06 12:36:11;;;;;;;6.13;3.07;;;5.70;1.00;;;;;;5056598;28;20185;-87
2022/03/06 12:38:39;;;;;;;5.60;3.03;;;5.60;1.00;;;;;;5085525;28;20569;-86
2022/03/06 12:41:13;;;;;;;6.07;3.50;;;5.50;1.00;;;;;;5075829;28;20195;-88
2022/03/06 12:43:50;;;;;;;10.77;4.80;;;5.50;1.00;;;;;;5076926;28;20187;-85
2022/03/06 12:46:19;;;;;;;8.27;4.87;;;5.40;1.00;;;;;;5089928;28;20230;-86
2022/03/06 12:48:52;;;;;;;6.10;3.50;;;5.30;1.00;;;;;;5076548;28;20188;-89
2022/03/06 12:51:47;;;;;;;10.70;4.50;;;5.30;1.00;;;;;;5074703;28;20494;-89
2022/03/06 12:54:20;;;;;;;7.70;3.47;;;5.20;1.00;;;;;;5065336;28;20642;-87
2022/03/06 12:56:54;;;;;;;7.03;3.10;;;5.20;1.00;;;;;;5076581;28;20194;-86
2022/03/06 12:59:28;;;;;;;6.03;3.57;;;5.10;1.00;;;;;;5074543;28;20179;-85
2022/03/06 13:01:56;;;;;;;8.90;4.53;;;5.20;1.00;;;;;;5075552;28;20188;-87